sensor_id;sensor_type;location;lat;lon;timestamp;P1;durP1;ratioP1;P2;durP2;ratioP2
25073;SDS011;13066;52.042;5.648;2022-12-07T00:01:18;10.68;;;6.15;;
25073;SDS011;13066;52.042;5.648;2022-12-07T00:03:47;10.40;;;5.82;;
25073;SDS011;13066;52.042;5.648;2022-12-07T00:06:16;11.07;;;5.93;;
25073;SDS011;13066;52.042;5.648;2022-12-07T00:08:45;14.80;;;5.97;;
25073;SDS011;13066;52.042;5.648;2022-12-07T00:11:16;13.82;;;6.38;;
25073;SDS011;13066;52.042;5.648;2022-12-07T00:13:46;8.65;;;5.85;;
25073;SDS011;13066;52.042;5.648;2022-12-07T00:16:18;14.80;;;6.22;;
25073;SDS011;13066;52.042;5.648;2022-12-07T00:18:48;10.13;;;5.50;;
25073;SDS011;13066;52.042;5.648;2022-12-07T00:21:16;10.00;;;6.30;;
25073;SDS011;13066;52.042;5.648;2022-12-07T00:23:46;15.75;;;5.97;;
25073;SDS011;13066;52.042;5.648;2022-12-07T00:26:18;16.55;;;5.95;;
25073;SDS011;13066;52.042;5.648;2022-12-07T00:28:48;16.00;;;6.60;;
25073;SDS011;13066;52.042;5.648;2022-12-07T00:31:17;11.43;;;6.00;;
25073;SDS011;13066;52.042;5.648;2022-12-07T00:33:47;12.27;;;5.93;;
25073;SDS011;13066;52.042;5.648;2022-12-07T00:36:16;10.63;;;6.13;;
25073;SDS011;13066;52.042;5.648;2022-12-07T00:38:52;14.70;;;6.13;;
25073;SDS011;13066;52.042;5.648;2022-12-07T00:41:22;11.85;;;5.90;;
25073;SDS011;13066;52.042;5.648;2022-12-07T00:43:51;9.32;;;5.70;;
25073;SDS011;13066;52.042;5.648;2022-12-07T00:46:20;11.73;;;5.05;;
25073;SDS011;13066;52.042;5.648;2022-12-07T00:48:49;13.05;;;6.07;;
25073;SDS011;13066;52.042;5.648;2022-12-07T00:51:18;9.98;;;5.15;;
25073;SDS011;13066;52.042;5.648;2022-12-07T00:53:48;12.68;;;5.45;;
25073;SDS011;13066;52.042;5.648;2022-12-07T00:56:17;12.18;;;5.97;;
25073;SDS011;13066;52.042;5.648;2022-12-07T00:58:50;10.02;;;5.80;;
25073;SDS011;13066;52.042;5.648;2022-12-07T01:01:19;12.93;;;5.68;;
25073;SDS011;13066;52.042;5.648;2022-12-07T01:03:47;9.77;;;5.05;;
25073;SDS011;13066;52.042;5.648;2022-12-07T01:06:15;15.82;;;6.05;;
25073;SDS011;13066;52.042;5.648;2022-12-07T01:08:44;8.65;;;5.32;;
25073;SDS011;13066;52.042;5.648;2022-12-07T01:11:13;13.10;;;5.97;;
25073;SDS011;13066;52.042;5.648;2022-12-07T01:13:43;13.38;;;5.72;;
25073;SDS011;13066;52.042;5.648;2022-12-07T01:16:13;13.27;;;5.63;;
25073;SDS011;13066;52.042;5.648;2022-12-07T01:18:42;12.75;;;5.97;;
25073;SDS011;13066;52.042;5.648;2022-12-07T01:21:14;11.45;;;5.72;;
25073;SDS011;13066;52.042;5.648;2022-12-07T01:23:44;10.55;;;5.30;;
25073;SDS011;13066;52.042;5.648;2022-12-07T01:26:13;12.88;;;5.25;;
25073;SDS011;13066;52.042;5.648;2022-12-07T01:28:42;9.43;;;5.30;;
25073;SDS011;13066;52.042;5.648;2022-12-07T01:31:13;12.20;;;6.13;;
25073;SDS011;13066;52.042;5.648;2022-12-07T01:33:43;13.50;;;6.18;;
25073;SDS011;13066;52.042;5.648;2022-12-07T01:36:13;8.70;;;5.65;;
25073;SDS011;13066;52.042;5.648;2022-12-07T01:38:42;16.48;;;6.00;;
25073;SDS011;13066;52.042;5.648;2022-12-07T01:41:11;8.95;;;5.03;;
25073;SDS011;13066;52.042;5.648;2022-12-07T01:44:06;11.02;;;5.35;;
25073;SDS011;13066;52.042;5.648;2022-12-07T01:46:39;11.82;;;4.95;;
25073;SDS011;13066;52.042;5.648;2022-12-07T01:49:08;16.30;;;5.80;;
25073;SDS011;13066;52.042;5.648;2022-12-07T01:51:40;15.35;;;5.47;;
25073;SDS011;13066;52.042;5.648;2022-12-07T01:54:09;8.88;;;6.25;;
25073;SDS011;13066;52.042;5.648;2022-12-07T01:56:39;11.25;;;4.80;;
25073;SDS011;13066;52.042;5.648;2022-12-07T01:59:09;16.02;;;5.85;;
25073;SDS011;13066;52.042;5.648;2022-12-07T02:01:38;16.42;;;5.40;;
25073;SDS011;13066;52.042;5.648;2022-12-07T02:04:06;16.65;;;5.68;;
25073;SDS011;13066;52.042;5.648;2022-12-07T02:06:35;12.82;;;5.20;;
25073;SDS011;13066;52.042;5.648;2022-12-07T02:09:03;14.43;;;5.35;;
25073;SDS011;13066;52.042;5.648;2022-12-07T02:11:31;10.95;;;5.50;;
25073;SDS011;13066;52.042;5.648;2022-12-07T02:13:59;12.43;;;5.47;;
25073;SDS011;13066;52.042;5.648;2022-12-07T02:16:31;7.82;;;4.60;;
25073;SDS011;13066;52.042;5.648;2022-12-07T02:19:14;9.90;;;4.60;;
25073;SDS011;13066;52.042;5.648;2022-12-07T02:24:48;12.40;;;4.50;;
25073;SDS011;13066;52.042;5.648;2022-12-07T02:27:36;14.43;;;5.05;;
25073;SDS011;13066;52.042;5.648;2022-12-07T02:30:09;14.73;;;4.72;;
25073;SDS011;13066;52.042;5.648;2022-12-07T02:32:41;17.55;;;5.13;;
25073;SDS011;13066;52.042;5.648;2022-12-07T02:35:15;16.73;;;4.53;;
25073;SDS011;13066;52.042;5.648;2022-12-07T02:37:54;17.30;;;5.63;;
25073;SDS011;13066;52.042;5.648;2022-12-07T02:40:31;11.27;;;4.03;;
25073;SDS011;13066;52.042;5.648;2022-12-07T02:45:35;10.27;;;4.35;;
25073;SDS011;13066;52.042;5.648;2022-12-07T02:48:06;10.32;;;4.50;;
25073;SDS011;13066;52.042;5.648;2022-12-07T02:50:36;16.23;;;3.88;;
25073;SDS011;13066;52.042;5.648;2022-12-07T02:53:04;16.23;;;4.38;;
25073;SDS011;13066;52.042;5.648;2022-12-07T02:55:33;11.10;;;4.35;;
25073;SDS011;13066;52.042;5.648;2022-12-07T02:58:14;10.27;;;3.88;;
25073;SDS011;13066;52.042;5.648;2022-12-07T03:00:54;12.25;;;4.43;;
25073;SDS011;13066;52.042;5.648;2022-12-07T03:03:31;9.73;;;3.75;;
25073;SDS011;13066;52.042;5.648;2022-12-07T03:06:10;13.30;;;4.25;;
25073;SDS011;13066;52.042;5.648;2022-12-07T03:08:46;10.57;;;4.10;;
25073;SDS011;13066;52.042;5.648;2022-12-07T03:11:21;7.85;;;3.90;;
25073;SDS011;13066;52.042;5.648;2022-12-07T03:13:56;13.02;;;3.40;;
25073;SDS011;13066;52.042;5.648;2022-12-07T03:16:31;8.10;;;3.90;;
25073;SDS011;13066;52.042;5.648;2022-12-07T03:19:03;12.88;;;3.50;;
25073;SDS011;13066;52.042;5.648;2022-12-07T03:21:37;9.57;;;3.97;;
25073;SDS011;13066;52.042;5.648;2022-12-07T03:24:08;10.95;;;3.65;;
25073;SDS011;13066;52.042;5.648;2022-12-07T03:26:41;10.07;;;3.30;;
25073;SDS011;13066;52.042;5.648;2022-12-07T03:29:12;15.20;;;3.50;;
25073;SDS011;13066;52.042;5.648;2022-12-07T03:31:45;15.77;;;3.90;;
25073;SDS011;13066;52.042;5.648;2022-12-07T03:34:16;7.55;;;3.30;;
25073;SDS011;13066;52.042;5.648;2022-12-07T03:36:49;14.20;;;4.00;;
25073;SDS011;13066;52.042;5.648;2022-12-07T03:39:22;10.27;;;3.33;;
25073;SDS011;13066;52.042;5.648;2022-12-07T03:41:54;9.70;;;3.78;;
25073;SDS011;13066;52.042;5.648;2022-12-07T03:44:23;5.22;;;3.22;;
25073;SDS011;13066;52.042;5.648;2022-12-07T03:46:56;17.58;;;4.03;;
25073;SDS011;13066;52.042;5.648;2022-12-07T03:49:30;7.38;;;3.28;;
25073;SDS011;13066;52.042;5.648;2022-12-07T03:52:07;12.90;;;3.58;;
25073;SDS011;13066;52.042;5.648;2022-12-07T03:54:40;9.50;;;3.13;;
25073;SDS011;13066;52.042;5.648;2022-12-07T03:57:13;8.48;;;3.33;;
25073;SDS011;13066;52.042;5.648;2022-12-07T03:59:43;8.20;;;2.95;;
25073;SDS011;13066;52.042;5.648;2022-12-07T04:02:12;13.93;;;3.00;;
25073;SDS011;13066;52.042;5.648;2022-12-07T04:04:41;10.02;;;3.08;;
25073;SDS011;13066;52.042;5.648;2022-12-07T04:07:10;8.25;;;2.42;;
25073;SDS011;13066;52.042;5.648;2022-12-07T04:09:39;11.45;;;3.10;;
25073;SDS011;13066;52.042;5.648;2022-12-07T04:12:07;6.85;;;2.78;;
25073;SDS011;13066;52.042;5.648;2022-12-07T04:14:35;5.15;;;2.55;;
25073;SDS011;13066;52.042;5.648;2022-12-07T04:17:03;8.05;;;2.70;;
25073;SDS011;13066;52.042;5.648;2022-12-07T04:19:33;12.20;;;2.65;;
25073;SDS011;13066;52.042;5.648;2022-12-07T04:22:02;6.10;;;2.55;;
25073;SDS011;13066;52.042;5.648;2022-12-07T04:24:31;13.05;;;3.20;;
25073;SDS011;13066;52.042;5.648;2022-12-07T04:26:59;10.20;;;3.05;;
25073;SDS011;13066;52.042;5.648;2022-12-07T04:29:27;8.43;;;2.65;;
25073;SDS011;13066;52.042;5.648;2022-12-07T04:31:55;9.63;;;2.42;;
25073;SDS011;13066;52.042;5.648;2022-12-07T04:34:23;8.15;;;2.70;;
25073;SDS011;13066;52.042;5.648;2022-12-07T04:36:52;7.22;;;2.60;;
25073;SDS011;13066;52.042;5.648;2022-12-07T04:39:21;12.70;;;2.97;;
25073;SDS011;13066;52.042;5.648;2022-12-07T04:41:50;9.52;;;3.03;;
25073;SDS011;13066;52.042;5.648;2022-12-07T04:44:18;7.07;;;2.28;;
25073;SDS011;13066;52.042;5.648;2022-12-07T04:46:47;11.05;;;2.95;;
25073;SDS011;13066;52.042;5.648;2022-12-07T04:49:15;8.98;;;2.13;;
25073;SDS011;13066;52.042;5.648;2022-12-07T04:51:43;5.60;;;2.53;;
25073;SDS011;13066;52.042;5.648;2022-12-07T04:54:13;9.02;;;2.63;;
25073;SDS011;13066;52.042;5.648;2022-12-07T04:56:42;8.18;;;2.35;;
25073;SDS011;13066;52.042;5.648;2022-12-07T04:59:10;10.93;;;2.53;;
25073;SDS011;13066;52.042;5.648;2022-12-07T05:01:40;4.30;;;2.20;;
25073;SDS011;13066;52.042;5.648;2022-12-07T05:04:08;8.05;;;2.85;;
25073;SDS011;13066;52.042;5.648;2022-12-07T05:06:36;15.43;;;3.13;;
25073;SDS011;13066;52.042;5.648;2022-12-07T05:09:04;17.70;;;2.83;;
25073;SDS011;13066;52.042;5.648;2022-12-07T05:11:34;9.73;;;2.85;;
25073;SDS011;13066;52.042;5.648;2022-12-07T05:14:06;8.82;;;2.45;;
25073;SDS011;13066;52.042;5.648;2022-12-07T05:16:36;8.20;;;2.50;;
25073;SDS011;13066;52.042;5.648;2022-12-07T05:19:04;6.78;;;2.17;;
25073;SDS011;13066;52.042;5.648;2022-12-07T05:21:33;10.82;;;2.60;;
25073;SDS011;13066;52.042;5.648;2022-12-07T05:24:01;11.13;;;2.83;;
25073;SDS011;13066;52.042;5.648;2022-12-07T05:26:29;6.80;;;2.03;;
25073;SDS011;13066;52.042;5.648;2022-12-07T05:28:58;3.08;;;1.73;;
25073;SDS011;13066;52.042;5.648;2022-12-07T05:31:27;4.57;;;2.00;;
25073;SDS011;13066;52.042;5.648;2022-12-07T05:33:55;12.48;;;2.08;;
25073;SDS011;13066;52.042;5.648;2022-12-07T05:36:23;5.30;;;1.65;;
25073;SDS011;13066;52.042;5.648;2022-12-07T05:38:51;5.65;;;2.05;;
25073;SDS011;13066;52.042;5.648;2022-12-07T05:41:19;8.93;;;2.00;;
25073;SDS011;13066;52.042;5.648;2022-12-07T05:44:06;10.43;;;1.88;;
25073;SDS011;13066;52.042;5.648;2022-12-07T05:46:34;12.88;;;1.80;;
25073;SDS011;13066;52.042;5.648;2022-12-07T05:49:02;7.30;;;1.73;;
25073;SDS011;13066;52.042;5.648;2022-12-07T05:51:30;7.00;;;1.40;;
25073;SDS011;13066;52.042;5.648;2022-12-07T05:53:58;6.22;;;1.80;;
25073;SDS011;13066;52.042;5.648;2022-12-07T05:56:26;6.78;;;1.48;;
25073;SDS011;13066;52.042;5.648;2022-12-07T05:58:54;7.13;;;1.55;;
25073;SDS011;13066;52.042;5.648;2022-12-07T06:01:41;7.15;;;1.50;;
25073;SDS011;13066;52.042;5.648;2022-12-07T06:04:09;7.63;;;1.70;;
25073;SDS011;13066;52.042;5.648;2022-12-07T06:06:37;13.60;;;2.25;;
25073;SDS011;13066;52.042;5.648;2022-12-07T06:09:05;6.63;;;1.90;;
25073;SDS011;13066;52.042;5.648;2022-12-07T06:11:34;6.20;;;1.92;;
25073;SDS011;13066;52.042;5.648;2022-12-07T06:14:19;7.93;;;1.75;;
25073;SDS011;13066;52.042;5.648;2022-12-07T06:16:49;8.80;;;1.73;;
25073;SDS011;13066;52.042;5.648;2022-12-07T06:19:17;8.25;;;1.90;;
25073;SDS011;13066;52.042;5.648;2022-12-07T06:21:45;7.70;;;1.88;;
25073;SDS011;13066;52.042;5.648;2022-12-07T06:24:14;6.30;;;2.17;;
25073;SDS011;13066;52.042;5.648;2022-12-07T06:26:42;10.90;;;1.85;;
25073;SDS011;13066;52.042;5.648;2022-12-07T06:29:11;13.45;;;1.85;;
25073;SDS011;13066;52.042;5.648;2022-12-07T06:31:39;12.30;;;1.85;;
25073;SDS011;13066;52.042;5.648;2022-12-07T06:34:10;8.32;;;1.83;;
25073;SDS011;13066;52.042;5.648;2022-12-07T06:36:39;3.92;;;1.52;;
25073;SDS011;13066;52.042;5.648;2022-12-07T06:39:08;5.78;;;1.50;;
25073;SDS011;13066;52.042;5.648;2022-12-07T06:41:36;8.13;;;1.75;;
25073;SDS011;13066;52.042;5.648;2022-12-07T06:44:05;9.82;;;1.80;;
25073;SDS011;13066;52.042;5.648;2022-12-07T06:46:34;11.45;;;1.67;;
25073;SDS011;13066;52.042;5.648;2022-12-07T06:49:02;10.45;;;1.85;;
25073;SDS011;13066;52.042;5.648;2022-12-07T06:51:32;7.25;;;1.63;;
25073;SDS011;13066;52.042;5.648;2022-12-07T06:54:01;5.65;;;1.98;;
25073;SDS011;13066;52.042;5.648;2022-12-07T06:56:29;8.82;;;1.90;;
25073;SDS011;13066;52.042;5.648;2022-12-07T06:58:57;8.73;;;1.75;;
25073;SDS011;13066;52.042;5.648;2022-12-07T07:01:25;14.45;;;2.38;;
25073;SDS011;13066;52.042;5.648;2022-12-07T07:03:53;12.00;;;2.05;;
25073;SDS011;13066;52.042;5.648;2022-12-07T07:06:21;9.70;;;1.70;;
25073;SDS011;13066;52.042;5.648;2022-12-07T07:08:51;11.82;;;2.53;;
25073;SDS011;13066;52.042;5.648;2022-12-07T07:11:19;6.53;;;1.50;;
25073;SDS011;13066;52.042;5.648;2022-12-07T07:13:47;14.57;;;2.28;;
25073;SDS011;13066;52.042;5.648;2022-12-07T07:16:15;6.32;;;1.75;;
25073;SDS011;13066;52.042;5.648;2022-12-07T07:18:43;6.90;;;2.17;;
25073;SDS011;13066;52.042;5.648;2022-12-07T07:21:11;9.27;;;2.33;;
25073;SDS011;13066;52.042;5.648;2022-12-07T07:23:39;10.30;;;1.98;;
25073;SDS011;13066;52.042;5.648;2022-12-07T07:26:09;17.73;;;2.20;;
25073;SDS011;13066;52.042;5.648;2022-12-07T07:28:37;9.02;;;1.80;;
25073;SDS011;13066;52.042;5.648;2022-12-07T07:31:05;6.38;;;1.90;;
25073;SDS011;13066;52.042;5.648;2022-12-07T07:33:33;4.28;;;1.85;;
25073;SDS011;13066;52.042;5.648;2022-12-07T07:36:01;5.88;;;1.98;;
25073;SDS011;13066;52.042;5.648;2022-12-07T07:38:29;7.35;;;2.33;;
25073;SDS011;13066;52.042;5.648;2022-12-07T07:40:57;17.98;;;2.60;;
25073;SDS011;13066;52.042;5.648;2022-12-07T07:43:27;11.13;;;2.17;;
25073;SDS011;13066;52.042;5.648;2022-12-07T07:45:55;6.53;;;2.25;;
25073;SDS011;13066;52.042;5.648;2022-12-07T07:48:23;7.47;;;2.17;;
25073;SDS011;13066;52.042;5.648;2022-12-07T07:50:51;6.50;;;1.88;;
25073;SDS011;13066;52.042;5.648;2022-12-07T07:53:19;14.40;;;2.22;;
25073;SDS011;13066;52.042;5.648;2022-12-07T07:55:50;16.83;;;1.98;;
25073;SDS011;13066;52.042;5.648;2022-12-07T07:58:19;7.55;;;2.00;;
25073;SDS011;13066;52.042;5.648;2022-12-07T08:00:49;6.68;;;2.10;;
25073;SDS011;13066;52.042;5.648;2022-12-07T08:03:17;5.82;;;1.95;;
25073;SDS011;13066;52.042;5.648;2022-12-07T08:05:45;8.35;;;2.28;;
25073;SDS011;13066;52.042;5.648;2022-12-07T08:08:13;11.15;;;2.00;;
25073;SDS011;13066;52.042;5.648;2022-12-07T08:10:41;10.70;;;2.05;;
25073;SDS011;13066;52.042;5.648;2022-12-07T08:13:09;11.65;;;2.78;;
25073;SDS011;13066;52.042;5.648;2022-12-07T08:15:41;11.38;;;2.25;;
25073;SDS011;13066;52.042;5.648;2022-12-07T08:18:12;8.00;;;2.30;;
25073;SDS011;13066;52.042;5.648;2022-12-07T08:20:41;12.73;;;3.15;;
25073;SDS011;13066;52.042;5.648;2022-12-07T08:23:09;9.77;;;2.00;;
25073;SDS011;13066;52.042;5.648;2022-12-07T08:25:38;11.13;;;2.13;;
25073;SDS011;13066;52.042;5.648;2022-12-07T08:28:06;16.80;;;2.28;;
25073;SDS011;13066;52.042;5.648;2022-12-07T08:30:34;10.20;;;2.30;;
25073;SDS011;13066;52.042;5.648;2022-12-07T08:33:03;8.10;;;2.63;;
25073;SDS011;13066;52.042;5.648;2022-12-07T08:35:33;11.70;;;2.35;;
25073;SDS011;13066;52.042;5.648;2022-12-07T08:38:01;8.82;;;2.05;;
25073;SDS011;13066;52.042;5.648;2022-12-07T08:40:30;14.07;;;2.20;;
25073;SDS011;13066;52.042;5.648;2022-12-07T08:42:58;9.80;;;2.88;;
25073;SDS011;13066;52.042;5.648;2022-12-07T08:45:26;9.25;;;2.40;;
25073;SDS011;13066;52.042;5.648;2022-12-07T08:47:55;11.70;;;2.70;;
25073;SDS011;13066;52.042;5.648;2022-12-07T08:50:27;8.47;;;2.63;;
25073;SDS011;13066;52.042;5.648;2022-12-07T08:52:56;11.32;;;2.83;;
25073;SDS011;13066;52.042;5.648;2022-12-07T08:55:26;15.85;;;2.83;;
25073;SDS011;13066;52.042;5.648;2022-12-07T08:57:55;15.75;;;2.85;;
25073;SDS011;13066;52.042;5.648;2022-12-07T09:00:24;15.43;;;2.53;;
25073;SDS011;13066;52.042;5.648;2022-12-07T09:02:53;4.93;;;2.40;;
25073;SDS011;13066;52.042;5.648;2022-12-07T09:05:21;8.25;;;2.10;;
25073;SDS011;13066;52.042;5.648;2022-12-07T09:07:51;9.43;;;2.28;;
25073;SDS011;13066;52.042;5.648;2022-12-07T09:10:25;6.88;;;2.15;;
25073;SDS011;13066;52.042;5.648;2022-12-07T09:12:53;5.25;;;2.05;;
25073;SDS011;13066;52.042;5.648;2022-12-07T09:15:21;11.05;;;2.17;;
25073;SDS011;13066;52.042;5.648;2022-12-07T09:17:49;8.68;;;2.58;;
25073;SDS011;13066;52.042;5.648;2022-12-07T09:20:17;9.50;;;2.10;;
25073;SDS011;13066;52.042;5.648;2022-12-07T09:22:52;8.38;;;1.88;;
25073;SDS011;13066;52.042;5.648;2022-12-07T09:25:20;13.52;;;2.40;;
25073;SDS011;13066;52.042;5.648;2022-12-07T09:27:51;10.77;;;1.80;;
25073;SDS011;13066;52.042;5.648;2022-12-07T09:30:23;8.27;;;2.22;;
25073;SDS011;13066;52.042;5.648;2022-12-07T09:32:52;7.70;;;2.00;;
25073;SDS011;13066;52.042;5.648;2022-12-07T09:35:20;11.88;;;2.20;;
25073;SDS011;13066;52.042;5.648;2022-12-07T09:37:48;5.60;;;1.75;;
25073;SDS011;13066;52.042;5.648;2022-12-07T09:40:17;11.23;;;2.30;;
25073;SDS011;13066;52.042;5.648;2022-12-07T09:42:47;11.88;;;2.03;;
25073;SDS011;13066;52.042;5.648;2022-12-07T09:45:19;8.90;;;1.60;;
25073;SDS011;13066;52.042;5.648;2022-12-07T09:47:49;6.55;;;1.67;;
25073;SDS011;13066;52.042;5.648;2022-12-07T09:50:19;8.80;;;2.30;;
25073;SDS011;13066;52.042;5.648;2022-12-07T09:52:50;17.10;;;2.33;;
25073;SDS011;13066;52.042;5.648;2022-12-07T09:55:19;12.15;;;2.42;;
25073;SDS011;13066;52.042;5.648;2022-12-07T09:57:52;5.53;;;1.83;;
25073;SDS011;13066;52.042;5.648;2022-12-07T10:00:22;16.73;;;2.05;;
25073;SDS011;13066;52.042;5.648;2022-12-07T10:02:53;6.40;;;1.85;;
25073;SDS011;13066;52.042;5.648;2022-12-07T10:05:24;7.55;;;1.60;;
25073;SDS011;13066;52.042;5.648;2022-12-07T10:07:55;8.75;;;1.85;;
25073;SDS011;13066;52.042;5.648;2022-12-07T10:10:25;3.33;;;1.40;;
25073;SDS011;13066;52.042;5.648;2022-12-07T10:13:00;10.68;;;2.17;;
25073;SDS011;13066;52.042;5.648;2022-12-07T10:15:43;13.07;;;2.08;;
25073;SDS011;13066;52.042;5.648;2022-12-07T10:18:20;8.40;;;1.98;;
25073;SDS011;13066;52.042;5.648;2022-12-07T10:21:00;7.60;;;1.60;;
25073;SDS011;13066;52.042;5.648;2022-12-07T10:23:40;15.35;;;2.10;;
25073;SDS011;13066;52.042;5.648;2022-12-07T10:26:19;12.60;;;2.45;;
25073;SDS011;13066;52.042;5.648;2022-12-07T10:28:57;7.43;;;1.92;;
25073;SDS011;13066;52.042;5.648;2022-12-07T10:31:27;7.05;;;1.80;;
25073;SDS011;13066;52.042;5.648;2022-12-07T10:33:56;12.15;;;2.10;;
25073;SDS011;13066;52.042;5.648;2022-12-07T10:36:26;6.75;;;1.83;;
25073;SDS011;13066;52.042;5.648;2022-12-07T10:39:02;10.95;;;2.17;;
25073;SDS011;13066;52.042;5.648;2022-12-07T10:41:38;9.35;;;2.05;;
25073;SDS011;13066;52.042;5.648;2022-12-07T10:44:22;11.77;;;2.03;;
25073;SDS011;13066;52.042;5.648;2022-12-07T10:47:13;7.72;;;1.70;;
25073;SDS011;13066;52.042;5.648;2022-12-07T10:52:46;9.43;;;2.38;;
25073;SDS011;13066;52.042;5.648;2022-12-07T10:55:33;8.63;;;1.73;;
25073;SDS011;13066;52.042;5.648;2022-12-07T10:58:18;6.45;;;1.50;;
25073;SDS011;13066;52.042;5.648;2022-12-07T11:01:01;6.60;;;1.70;;
25073;SDS011;13066;52.042;5.648;2022-12-07T11:03:39;4.53;;;1.65;;
25073;SDS011;13066;52.042;5.648;2022-12-07T11:06:19;8.75;;;1.70;;
25073;SDS011;13066;52.042;5.648;2022-12-07T11:08:58;6.65;;;1.58;;
25073;SDS011;13066;52.042;5.648;2022-12-07T11:11:33;10.70;;;1.90;;
25073;SDS011;13066;52.042;5.648;2022-12-07T11:14:05;6.95;;;1.73;;
25073;SDS011;13066;52.042;5.648;2022-12-07T11:16:50;8.02;;;1.85;;
25073;SDS011;13066;52.042;5.648;2022-12-07T11:19:34;8.30;;;1.80;;
25073;SDS011;13066;52.042;5.648;2022-12-07T11:22:18;7.55;;;2.33;;
25073;SDS011;13066;52.042;5.648;2022-12-07T11:24:54;5.35;;;1.45;;
25073;SDS011;13066;52.042;5.648;2022-12-07T11:27:28;9.98;;;1.85;;
25073;SDS011;13066;52.042;5.648;2022-12-07T11:30:03;10.95;;;1.90;;
25073;SDS011;13066;52.042;5.648;2022-12-07T11:32:51;10.50;;;1.55;;
25073;SDS011;13066;52.042;5.648;2022-12-07T11:35:30;6.90;;;1.42;;
25073;SDS011;13066;52.042;5.648;2022-12-07T11:38:08;8.73;;;1.85;;
25073;SDS011;13066;52.042;5.648;2022-12-07T11:40:40;9.25;;;1.58;;
25073;SDS011;13066;52.042;5.648;2022-12-07T11:43:13;7.40;;;1.90;;
25073;SDS011;13066;52.042;5.648;2022-12-07T11:45:52;6.45;;;1.50;;
25073;SDS011;13066;52.042;5.648;2022-12-07T11:51:00;7.53;;;1.60;;
25073;SDS011;13066;52.042;5.648;2022-12-07T11:53:31;5.72;;;1.52;;
25073;SDS011;13066;52.042;5.648;2022-12-07T11:56:07;12.85;;;1.88;;
25073;SDS011;13066;52.042;5.648;2022-12-07T11:58:41;5.13;;;1.92;;
25073;SDS011;13066;52.042;5.648;2022-12-07T12:01:19;6.40;;;1.67;;
25073;SDS011;13066;52.042;5.648;2022-12-07T12:04:00;9.13;;;2.10;;
25073;SDS011;13066;52.042;5.648;2022-12-07T12:06:31;8.45;;;1.90;;
25073;SDS011;13066;52.042;5.648;2022-12-07T12:09:03;6.63;;;2.40;;
25073;SDS011;13066;52.042;5.648;2022-12-07T12:12:01;10.73;;;1.98;;
25073;SDS011;13066;52.042;5.648;2022-12-07T12:15:13;11.52;;;2.65;;
25073;SDS011;13066;52.042;5.648;2022-12-07T12:18:08;10.98;;;1.85;;
25073;SDS011;13066;52.042;5.648;2022-12-07T12:20:48;4.18;;;1.55;;
25073;SDS011;13066;52.042;5.648;2022-12-07T12:23:20;5.88;;;1.85;;
25073;SDS011;13066;52.042;5.648;2022-12-07T12:25:50;8.93;;;2.00;;
25073;SDS011;13066;52.042;5.648;2022-12-07T12:28:23;8.30;;;1.58;;
25073;SDS011;13066;52.042;5.648;2022-12-07T12:31:04;7.03;;;2.20;;
25073;SDS011;13066;52.042;5.648;2022-12-07T12:33:35;6.50;;;1.88;;
25073;SDS011;13066;52.042;5.648;2022-12-07T12:36:20;7.43;;;1.77;;
25073;SDS011;13066;52.042;5.648;2022-12-07T12:39:09;6.85;;;1.90;;
25073;SDS011;13066;52.042;5.648;2022-12-07T12:51:01;6.40;;;1.50;;
25073;SDS011;13066;52.042;5.648;2022-12-07T12:54:10;9.60;;;1.60;;
25073;SDS011;13066;52.042;5.648;2022-12-07T12:56:42;8.30;;;1.48;;
25073;SDS011;13066;52.042;5.648;2022-12-07T12:59:23;7.68;;;1.48;;
25073;SDS011;13066;52.042;5.648;2022-12-07T13:01:54;5.10;;;1.67;;
25073;SDS011;13066;52.042;5.648;2022-12-07T13:04:25;9.25;;;1.90;;
25073;SDS011;13066;52.042;5.648;2022-12-07T13:09:27;4.90;;;1.70;;
25073;SDS011;13066;52.042;5.648;2022-12-07T13:12:00;4.47;;;1.40;;
25073;SDS011;13066;52.042;5.648;2022-12-07T13:14:42;8.27;;;1.83;;
25073;SDS011;13066;52.042;5.648;2022-12-07T13:23:19;7.90;;;1.80;;
25073;SDS011;13066;52.042;5.648;2022-12-07T13:26:06;10.52;;;1.45;;
25073;SDS011;13066;52.042;5.648;2022-12-07T13:28:44;8.77;;;1.60;;
25073;SDS011;13066;52.042;5.648;2022-12-07T13:31:24;7.20;;;2.10;;
25073;SDS011;13066;52.042;5.648;2022-12-07T13:33:59;9.18;;;2.03;;
25073;SDS011;13066;52.042;5.648;2022-12-07T13:36:29;7.75;;;1.30;;
25073;SDS011;13066;52.042;5.648;2022-12-07T13:39:16;7.53;;;1.52;;
25073;SDS011;13066;52.042;5.648;2022-12-07T13:41:49;5.05;;;1.00;;
25073;SDS011;13066;52.042;5.648;2022-12-07T13:44:18;7.70;;;1.58;;
25073;SDS011;13066;52.042;5.648;2022-12-07T13:46:49;2.58;;;1.50;;
25073;SDS011;13066;52.042;5.648;2022-12-07T13:49:23;1.77;;;1.00;;
25073;SDS011;13066;52.042;5.648;2022-12-07T13:51:53;1.92;;;0.73;;
25073;SDS011;13066;52.042;5.648;2022-12-07T13:54:23;3.35;;;0.80;;
25073;SDS011;13066;52.042;5.648;2022-12-07T13:56:52;7.32;;;1.27;;
25073;SDS011;13066;52.042;5.648;2022-12-07T13:59:21;5.63;;;1.35;;
25073;SDS011;13066;52.042;5.648;2022-12-07T14:01:52;2.33;;;1.00;;
25073;SDS011;13066;52.042;5.648;2022-12-07T14:04:31;3.92;;;1.00;;
25073;SDS011;13066;52.042;5.648;2022-12-07T14:07:01;3.70;;;0.90;;
25073;SDS011;13066;52.042;5.648;2022-12-07T14:09:55;7.53;;;1.00;;
25073;SDS011;13066;52.042;5.648;2022-12-07T14:12:24;2.88;;;0.90;;
25073;SDS011;13066;52.042;5.648;2022-12-07T14:14:54;0.73;;;0.52;;
25073;SDS011;13066;52.042;5.648;2022-12-07T14:17:24;2.85;;;1.20;;
25073;SDS011;13066;52.042;5.648;2022-12-07T14:19:53;2.97;;;1.23;;
25073;SDS011;13066;52.042;5.648;2022-12-07T14:22:24;2.30;;;1.20;;
25073;SDS011;13066;52.042;5.648;2022-12-07T14:25:11;4.22;;;1.20;;
25073;SDS011;13066;52.042;5.648;2022-12-07T14:27:49;10.45;;;1.50;;
25073;SDS011;13066;52.042;5.648;2022-12-07T14:30:19;2.63;;;0.98;;
25073;SDS011;13066;52.042;5.648;2022-12-07T14:32:48;4.70;;;1.55;;
25073;SDS011;13066;52.042;5.648;2022-12-07T14:35:19;3.92;;;1.42;;
25073;SDS011;13066;52.042;5.648;2022-12-07T14:37:47;4.72;;;1.50;;
25073;SDS011;13066;52.042;5.648;2022-12-07T14:40:18;4.85;;;1.58;;
25073;SDS011;13066;52.042;5.648;2022-12-07T14:42:49;3.47;;;1.30;;
25073;SDS011;13066;52.042;5.648;2022-12-07T14:45:20;5.97;;;1.70;;
25073;SDS011;13066;52.042;5.648;2022-12-07T14:47:49;5.07;;;2.03;;
25073;SDS011;13066;52.042;5.648;2022-12-07T14:50:38;5.10;;;1.73;;
25073;SDS011;13066;52.042;5.648;2022-12-07T14:53:30;11.10;;;2.63;;
25073;SDS011;13066;52.042;5.648;2022-12-07T14:56:04;4.53;;;1.83;;
25073;SDS011;13066;52.042;5.648;2022-12-07T14:58:33;8.65;;;2.05;;
25073;SDS011;13066;52.042;5.648;2022-12-07T15:01:01;7.78;;;1.90;;
25073;SDS011;13066;52.042;5.648;2022-12-07T15:03:29;5.53;;;1.60;;
25073;SDS011;13066;52.042;5.648;2022-12-07T15:05:57;5.10;;;1.73;;
25073;SDS011;13066;52.042;5.648;2022-12-07T15:08:25;7.95;;;2.10;;
25073;SDS011;13066;52.042;5.648;2022-12-07T15:10:54;4.43;;;1.60;;
25073;SDS011;13066;52.042;5.648;2022-12-07T15:13:23;4.22;;;1.88;;
25073;SDS011;13066;52.042;5.648;2022-12-07T15:16:09;3.20;;;1.25;;
25073;SDS011;13066;52.042;5.648;2022-12-07T15:18:38;4.38;;;2.00;;
25073;SDS011;13066;52.042;5.648;2022-12-07T15:21:23;6.35;;;1.95;;
25073;SDS011;13066;52.042;5.648;2022-12-07T15:23:51;6.60;;;1.73;;
25073;SDS011;13066;52.042;5.648;2022-12-07T15:26:21;12.40;;;2.20;;
25073;SDS011;13066;52.042;5.648;2022-12-07T15:28:52;6.25;;;2.05;;
25073;SDS011;13066;52.042;5.648;2022-12-07T15:31:20;7.10;;;2.00;;
25073;SDS011;13066;52.042;5.648;2022-12-07T15:34:08;6.57;;;2.03;;
25073;SDS011;13066;52.042;5.648;2022-12-07T15:36:36;6.53;;;2.00;;
25073;SDS011;13066;52.042;5.648;2022-12-07T15:39:04;9.90;;;2.28;;
25073;SDS011;13066;52.042;5.648;2022-12-07T15:41:40;6.47;;;2.47;;